Time;durP1;ratioP1;P1;durP2;ratioP2;P2;SDS_P1;SDS_P2;PMS_P1;PMS_P2;Temp;Humidity;BMP_temperature;BMP_pressure;BME280_temperature;BME280_humidity;BME280_pressure;Samples;Min_cycle;Max_cycle;Signal;HPM_P1;HPM_P2
2022/04/20 00:00:41;;;;;;;4.60;3.80;;;;;;;5.78;68.05;100068.59;105015;1287;22568;-72
2022/04/20 00:03:08;;;;;;;4.40;3.90;;;;;;;5.75;68.24;100070.51;105008;1284;22591;-74
2022/04/20 00:05:35;;;;;;;4.50;3.80;;;;;;;5.75;68.30;100073.13;105158;1284;22581;-73
2022/04/20 00:08:01;;;;;;;4.30;3.80;;;;;;;5.73;68.43;100073.45;105212;1284;22588;-75
2022/04/20 00:10:29;;;;;;;6.80;4.30;;;;;;;5.71;68.46;100075.89;105162;1285;22572;-77
2022/04/20 00:12:56;;;;;;;5.90;3.80;;;;;;;5.76;68.59;100071.71;105064;1284;24434;-75
2022/04/20 00:15:23;;;;;;;4.50;3.90;;;;;;;5.70;68.75;100062.60;105017;1287;24282;-72
2022/04/20 00:17:50;;;;;;;4.20;3.70;;;;;;;5.68;68.78;100060.85;105448;1281;24221;-73
2022/04/20 00:20:17;;;;;;;4.20;3.80;;;;;;;5.70;68.90;100061.04;105349;1281;22869;-75
2022/04/20 00:22:44;;;;;;;5.90;4.40;;;;;;;5.75;68.97;100060.87;105586;1279;24239;-78
2022/04/20 00:25:10;;;;;;;4.80;4.40;;;;;;;5.70;69.36;100057.54;105769;1279;25510;-75
2022/04/20 00:27:37;;;;;;;5.20;4.70;;;;;;;5.62;69.34;100060.29;105658;1281;25408;-75
2022/04/20 00:30:05;;;;;;;5.40;4.00;;;;;;;5.63;69.54;100054.70;105241;1281;22652;-76
2022/04/20 00:32:32;;;;;;;4.80;4.20;;;;;;;5.67;69.67;100054.73;105896;1279;22707;-76
2022/04/20 00:34:58;;;;;;;5.40;4.90;;;;;;;5.67;69.80;100053.86;105661;1279;22802;-75
2022/04/20 00:37:24;;;;;;;4.80;3.80;;;;;;;5.67;69.95;100051.23;105363;1279;23934;-74
2022/04/20 00:39:51;;;;;;;5.00;4.50;;;;;;;5.64;70.04;100050.70;105215;1281;22569;-74
2022/04/20 00:42:22;;;;;;;6.20;5.00;;;;;;;5.65;70.28;100046.85;105469;1281;24239;-75
2022/04/20 00:44:51;;;;;;;7.50;4.80;;;;;;;5.68;70.26;100048.27;105599;1281;24311;-73
2022/04/20 00:47:18;;;;;;;4.80;4.20;;;;;;;5.71;70.31;100044.45;105703;1278;23796;-76
2022/04/20 00:49:46;;;;;;;5.00;4.50;;;;;;;5.66;70.32;100034.98;105294;1278;22585;-76
2022/04/20 00:52:13;;;;;;;4.10;3.70;;;;;;;5.70;70.46;100038.14;105392;1281;22666;-73
2022/04/20 00:54:40;;;;;;;5.30;4.20;;;;;;;5.73;70.43;100028.36;105256;1281;22707;-71
2022/04/20 00:57:06;;;;;;;6.30;4.60;;;;;;;5.70;70.47;100031.34;105352;1281;22502;-73
2022/04/20 00:59:36;;;;;;;6.30;5.10;;;;;;;5.67;70.44;100028.34;105605;1281;22558;-77
2022/04/20 01:02:04;;;;;;;6.10;4.60;;;;;;;5.67;70.60;100019.95;105588;1279;22711;-74
2022/04/20 01:04:31;;;;;;;5.00;4.20;;;;;;;5.67;70.55;100017.70;105446;1279;24402;-73
2022/04/20 01:07:18;;;;;;;5.20;4.60;;;;;;;5.69;70.65;100008.09;105632;1279;25509;-76
2022/04/20 01:10:10;;;;;;;6.00;4.90;;;;;;;5.68;70.63;100004.77;105300;1281;22569;-73
2022/04/20 01:12:47;;;;;;;6.00;5.10;;;;;;;5.64;70.86;99999.15;105242;1281;22711;-76
2022/04/20 01:15:34;;;;;;;5.40;4.60;;;;;;;5.62;70.90;100000.02;105523;1279;22818;-74
2022/04/20 01:18:16;;;;;;;5.50;4.80;;;;;;;5.62;71.05;99998.96;105448;1279;22736;-74
2022/04/20 01:21:23;;;;;;;6.30;4.60;;;;;;;5.64;71.25;99996.54;104996;1284;24077;-73
2022/04/20 01:23:55;;;;;;;6.80;5.30;;;;;;;5.64;71.38;99996.36;105097;1284;22573;-71
2022/04/20 01:26:27;;;;;;;5.90;4.80;;;;;;;5.68;71.45;99996.56;105342;1279;24330;-73
2022/04/20 01:29:03;;;;;;;5.80;5.20;;;;;;;5.73;71.38;99993.77;105352;1279;22549;-73
2022/04/20 01:31:56;;;;;;;7.90;5.30;;;;;;;5.72;71.35;99985.91;105655;1279;22649;-76
2022/04/20 01:34:30;;;;;;;6.50;5.10;;;;;;;5.65;71.40;99979.95;105384;1279;22585;-74
2022/04/20 01:36:56;;;;;;;5.70;5.20;;;;;;;5.62;71.77;99973.30;105582;1281;22550;-74
2022/04/20 01:39:23;;;;;;;5.70;4.60;;;;;;;5.60;71.95;99968.23;106162;1278;23023;-74
2022/04/20 01:41:49;;;;;;;7.40;6.20;;;;;;;5.57;72.13;99967.52;106224;1279;22500;-74
2022/04/20 01:44:15;;;;;;;6.80;6.00;;;;;;;5.54;72.43;99966.95;106412;1281;25416;-74
2022/04/20 01:46:47;;;;;;;8.00;5.80;;;;;;;5.53;72.49;99966.61;106055;1279;25228;-75
2022/04/20 01:49:29;;;;;;;10.30;6.20;;;;;;;5.48;72.68;99957.85;106151;1279;23362;-71
2022/04/20 01:52:04;;;;;;;5.30;4.50;;;;;;;5.46;72.83;99952.27;106752;1279;25365;-72
2022/04/20 01:54:52;;;;;;;6.10;5.50;;;;;;;5.44;73.04;99950.15;106893;1284;22551;-73
2022/04/20 01:57:18;;;;;;;6.90;5.70;;;;;;;5.44;73.27;99943.34;106422;1286;22529;-73
2022/04/20 02:00:17;;;;;;;8.70;6.00;;;;;;;5.48;73.36;99942.14;105500;1287;22587;-71
2022/04/20 02:02:51;;;;;;;6.40;5.80;;;;;;;5.47;73.58;99940.20;105256;1287;22829;-71
2022/04/20 02:05:23;;;;;;;6.40;5.30;;;;;;;5.44;73.72;99938.63;105154;1288;22717;-79
2022/04/20 02:07:55;;;;;;;7.20;6.00;;;;;;;5.38;73.93;99933.35;105331;1287;25468;-72
2022/04/20 02:10:28;;;;;;;8.20;6.40;;;;;;;5.38;74.33;99928.65;104878;1287;22666;-73
2022/04/20 02:12:55;;;;;;;7.70;6.00;;;;;;;5.39;74.47;99923.92;105002;1284;25280;-72
2022/04/20 02:15:33;;;;;;;9.30;6.60;;;;;;;5.43;74.67;99922.39;105350;1279;25274;-74
2022/04/20 02:17:59;;;;;;;5.90;5.40;;;;;;;5.45;74.71;99918.54;106023;1279;22682;-71
2022/04/20 02:20:52;;;;;;;6.10;5.50;;;;;;;5.43;74.78;99916.27;106288;1278;23031;-73
2022/04/20 02:23:19;;;;;;;6.00;5.40;;;;;;;5.42;75.19;99911.36;106459;1278;22495;-73
2022/04/20 02:25:45;;;;;;;5.20;4.60;;;;;;;5.41;75.24;99908.39;106049;1279;24287;-73
2022/04/20 02:28:11;;;;;;;5.00;4.20;;;;;;;5.36;75.01;99909.09;106055;1279;24297;-74
2022/04/20 02:30:37;;;;;;;6.80;5.40;;;;;;;5.29;75.32;99909.21;105868;1281;22605;-74
2022/04/20 02:33:03;;;;;;;6.10;5.50;;;;;;;5.30;75.71;99906.78;105765;1280;23961;-73
2022/04/20 02:35:31;;;;;;;6.40;5.30;;;;;;;5.31;75.85;99905.23;105788;1281;23346;-72
2022/04/20 02:37:59;;;;;;;6.90;5.70;;;;;;;5.29;75.86;99897.86;105434;1281;22557;-75
2022/04/20 02:40:25;;;;;;;6.20;5.00;;;;;;;5.30;76.17;99896.48;105880;1281;22579;-76
2022/04/20 02:42:52;;;;;;;7.10;5.00;;;;;;;5.27;76.10;99892.79;105760;1279;23759;-75
2022/04/20 02:45:19;;;;;;;6.40;5.80;;;;;;;5.18;76.38;99888.23;105584;1281;22562;-76
2022/04/20 02:47:45;;;;;;;5.50;4.90;;;;;;;5.14;76.76;99889.42;105671;1281;24231;-74
2022/04/20 02:50:12;;;;;;;5.50;5.00;;;;;;;5.09;76.70;99886.25;105594;1281;22624;-76
2022/04/20 02:52:38;;;;;;;6.10;5.50;;;;;;;5.13;76.96;99885.58;105469;1279;26631;-75
2022/04/20 02:55:05;;;;;;;5.50;5.00;;;;;;;5.16;77.15;99884.02;105350;1279;24100;-75
2022/04/20 02:57:31;;;;;;;6.00;4.70;;;;;;;5.16;77.10;99880.17;105774;1279;22604;-74
2022/04/20 02:59:58;;;;;;;4.90;4.50;;;;;;;5.18;77.26;99880.54;105787;1279;22633;-75
2022/04/20 03:02:24;;;;;;;5.20;4.70;;;;;;;5.21;77.40;99876.71;105851;1279;22739;-74
2022/04/20 03:04:50;;;;;;;4.50;4.10;;;;;;;5.23;77.24;99873.92;105860;1279;22559;-75
2022/04/20 03:07:18;;;;;;;5.60;4.60;;;;;;;5.26;77.25;99874.64;105788;1279;22573;-76
2022/04/20 03:09:50;;;;;;;5.50;5.00;;;;;;;5.27;77.30;99874.30;105292;1287;22572;-76
2022/04/20 03:12:17;;;;;;;4.20;3.80;;;;;;;5.29;77.54;99871.85;105174;1287;22589;-76
2022/04/20 03:14:51;;;;;;;4.20;3.80;;;;;;;5.35;77.48;99872.23;105124;1287;22544;-74
2022/04/20 03:17:18;;;;;;;4.00;3.60;;;;;;;5.37;77.35;99868.58;105022;1287;22574;-72
2022/04/20 03:19:44;;;;;;;4.80;4.40;;;;;;;5.35;77.36;99862.98;105062;1287;22568;-73
2022/04/20 03:22:11;;;;;;;3.80;3.50;;;;;;;5.36;77.45;99865.08;105033;1287;22548;-74
2022/04/20 03:24:38;;;;;;;4.30;3.90;;;;;;;5.37;77.53;99863.86;105027;1287;22633;-73
2022/04/20 03:27:10;;;;;;;4.50;4.10;;;;;;;5.37;77.47;99862.29;104937;1279;25268;-76
2022/04/20 03:29:56;;;;;;;4.90;4.00;;;;;;;5.40;77.80;99860.38;105725;1278;22639;-73
2022/04/20 03:32:22;;;;;;;4.90;4.40;;;;;;;5.40;77.86;99857.94;105590;1280;22512;-79
2022/04/20 03:34:50;;;;;;;3.90;3.50;;;;;;;5.42;77.89;99851.99;105907;1279;25231;-75
2022/04/20 03:37:16;;;;;;;5.20;4.10;;;;;;;5.43;77.78;99847.98;105729;1281;22560;-75
2022/04/20 03:39:42;;;;;;;4.70;3.90;;;;;;;5.45;77.80;99843.80;105535;1281;25303;-76
2022/04/20 03:42:09;;;;;;;4.10;3.80;;;;;;;5.49;77.85;99841.35;105801;1278;25368;-77
2022/04/20 03:44:36;;;;;;;4.40;4.00;;;;;;;5.50;77.85;99832.64;105731;1281;25418;-75
2022/04/20 03:47:03;;;;;;;4.30;3.90;;;;;;;5.54;77.78;99836.30;105764;1279;24245;-75
2022/04/20 03:49:30;;;;;;;4.00;3.70;;;;;;;5.57;77.74;99833.35;105668;1278;25268;-74
2022/04/20 03:51:57;;;;;;;4.40;4.00;;;;;;;5.61;78.00;99833.19;105484;1281;23948;-74
2022/04/20 03:54:28;;;;;;;4.10;3.70;;;;;;;5.65;77.82;99830.93;105501;1279;22571;-77
2022/04/20 03:57:03;;;;;;;3.90;3.60;;;;;;;5.64;77.64;99832.48;105685;1279;22572;-74
2022/04/20 03:59:32;;;;;;;4.60;3.60;;;;;;;5.59;77.73;99830.05;105294;1279;22554;-75
2022/04/20 04:01:59;;;;;;;5.60;3.90;;;;;;;5.60;77.99;99829.69;105373;1279;24698;-79
2022/04/20 04:04:27;;;;;;;5.00;4.00;;;;;;;5.65;78.07;99828.14;105328;1281;22611;-72
2022/04/20 04:06:55;;;;;;;4.50;4.00;;;;;;;5.66;78.14;99827.77;105342;1281;22544;-77
2022/04/20 04:09:22;;;;;;;4.00;3.60;;;;;;;5.64;78.14;99827.95;105553;1281;22574;-78
2022/04/20 04:11:49;;;;;;;5.20;4.10;;;;;;;5.62;78.30;99825.50;105527;1279;22578;-75
2022/04/20 04:14:15;;;;;;;5.00;4.50;;;;;;;5.66;78.55;99821.14;105459;1279;25401;-76
2022/04/20 04:16:41;;;;;;;4.20;3.80;;;;;;;5.69;78.42;99823.23;105527;1281;25392;-76
2022/04/20 04:19:08;;;;;;;6.00;4.40;;;;;;;5.75;78.50;99825.70;105728;1278;25485;-74
2022/04/20 04:21:37;;;;;;;6.00;4.60;;;;;;;5.72;78.41;99824.46;105893;1279;23948;-82
2022/04/20 04:24:05;;;;;;;5.30;4.50;;;;;;;5.70;78.48;99819.74;105917;1279;22559;-77
2022/04/20 04:26:37;;;;;;;4.80;4.20;;;;;;;5.69;78.56;99815.91;105703;1281;22589;-76
2022/04/20 04:29:04;;;;;;;2.60;2.10;;;;;;;5.72;78.51;99815.73;106012;1279;22560;-80
2022/04/20 04:31:30;;;;;;;3.80;3.40;;;;;;;5.72;78.29;99818.52;105403;1279;25720;-79
2022/04/20 04:33:57;;;;;;;3.70;3.40;;;;;;;5.70;78.44;99815.38;105423;1279;24685;-81
2022/04/20 04:36:23;;;;;;;3.50;3.20;;;;;;;5.70;78.47;99813.11;105742;1278;22753;-84
2022/04/20 04:38:54;;;;;;;3.80;3.50;;;;;;;5.72;78.62;99812.95;105611;1279;25474;-84
2022/04/20 04:41:24;;;;;;;4.50;3.60;;;;;;;5.77;78.72;99813.65;105842;1278;22812;-80
2022/04/20 04:43:51;;;;;;;4.30;3.60;;;;;;;5.81;78.84;99813.48;105499;1279;24813;-85
2022/04/20 04:49:34;;;;;;;3.20;2.90;;;;;;;5.85;78.89;99806.48;105698;1279;22740;-84
2022/04/20 04:52:04;;;;;;;3.50;3.20;;;;;;;5.88;79.05;99805.09;105915;1279;25320;-82
2022/04/20 04:54:32;;;;;;;4.00;3.60;;;;;;;5.88;79.03;99805.62;105774;1281;23951;-84
2022/04/20 04:56:58;;;;;;;5.20;3.50;;;;;;;5.87;78.99;99805.27;105904;1279;25007;-85
2022/04/20 04:59:25;;;;;;;4.40;3.50;;;;;;;5.88;78.82;99805.27;105736;1279;22534;-84
2022/04/20 05:01:53;;;;;;;3.90;3.50;;;;;;;5.90;78.97;99799.33;105943;1279;24590;-84
2022/04/20 05:04:19;;;;;;;5.70;4.70;;;;;;;5.90;78.94;99797.40;106283;1279;22546;-82
2022/04/20 05:06:47;;;;;;;8.60;4.90;;;;;;;5.92;78.93;99795.48;105570;1279;372009;-83
2022/04/20 05:09:31;;;;;;;5.40;4.80;;;;;;;5.97;79.07;99794.26;105809;1279;25333;-83
2022/04/20 05:11:58;;;;;;;5.00;3.90;;;;;;;6.02;78.88;99791.99;105678;1278;25239;-83
2022/04/20 05:14:25;;;;;;;5.40;4.80;;;;;;;6.03;78.79;99786.41;105556;1281;26495;-82
2022/04/20 05:16:55;;;;;;;6.50;5.50;;;;;;;6.03;78.81;99787.63;105563;1281;22553;-82
2022/04/20 05:19:22;;;;;;;5.00;3.80;;;;;;;6.07;78.79;99785.73;106091;1281;23969;-87
2022/04/20 05:21:51;;;;;;;4.50;4.00;;;;;;;6.08;78.84;99779.95;106145;1281;25293;-86
2022/04/20 05:24:24;;;;;;;5.10;3.90;;;;;;;6.09;78.97;99775.41;105755;1281;22688;-83
2022/04/20 05:26:50;;;;;;;5.40;4.40;;;;;;;6.14;78.85;99777.85;105367;1282;22563;-84
2022/04/20 05:29:18;;;;;;;4.40;3.80;;;;;;;6.15;78.91;99769.29;105647;1281;22641;-92
2022/04/20 05:31:59;;;;;;;5.30;3.90;;;;;;;6.13;78.86;99776.98;106372;1281;25420;-84
2022/04/20 05:34:31;;;;;;;3.50;3.20;;;;;;;6.11;78.89;99774.54;105659;1281;22548;-85
2022/04/20 05:42:42;;;;;;;7.30;5.00;;;;;;;6.03;79.36;99774.52;104836;1288;22818;-85
2022/04/20 05:45:10;;;;;;;6.20;4.20;;;;;;;6.07;79.42;99777.34;105039;1287;24002;-84
2022/04/20 05:47:38;;;;;;;4.30;3.90;;;;;;;6.04;79.41;99777.15;106482;1269;23431;-88
2022/04/20 05:50:06;;;;;;;5.90;4.50;;;;;;;6.07;79.44;99774.73;107173;1274;22629;-85
2022/04/20 05:52:33;;;;;;;6.00;4.90;;;;;;;6.13;79.66;99776.98;106648;1273;25370;-82
2022/04/20 05:55:01;;;;;;;6.40;4.70;;;;;;;6.16;79.53;99771.20;105979;1275;22643;-85
2022/04/20 05:57:27;;;;;;;6.70;4.60;;;;;;;6.25;79.49;99774.88;106097;1275;22537;-83
2022/04/20 05:59:53;;;;;;;5.60;4.60;;;;;;;6.27;79.33;99776.10;105900;1274;26491;-81
2022/04/20 06:02:20;;;;;;;5.50;4.90;;;;;;;6.26;79.17;99774.88;105866;1275;25329;-80
2022/04/20 06:04:47;;;;;;;6.50;3.80;;;;;;;6.28;79.28;99773.30;106125;1273;23072;-85
2022/04/20 06:07:43;;;;;;;5.00;3.80;;;;;;;6.30;79.04;99767.86;105580;1276;24792;-80
2022/04/20 06:10:32;;;;;;;4.50;2.90;;;;;;;6.34;79.15;99768.39;106613;1274;22541;-82
2022/04/20 06:13:03;;;;;;;3.90;3.10;;;;;;;6.41;78.90;99769.96;107124;1273;25398;-80
2022/04/20 06:15:56;;;;;;;3.20;2.70;;;;;;;6.42;78.65;99770.83;106236;1280;22921;-82
2022/04/20 06:18:28;;;;;;;3.90;3.10;;;;;;;6.44;78.61;99768.19;106495;1278;22569;-82
2022/04/20 06:21:18;;;;;;;3.40;2.90;;;;;;;6.48;78.41;99766.97;105395;1281;22815;-83
2022/04/20 06:24:03;;;;;;;3.50;2.70;;;;;;;6.52;78.35;99759.95;105852;1280;22746;-82
2022/04/20 06:26:52;;;;;;;4.10;3.20;;;;;;;6.54;78.26;99761.88;105840;1280;22701;-81
2022/04/20 06:29:21;;;;;;;4.40;3.60;;;;;;;6.59;78.47;99762.04;106083;1278;22648;-82
2022/04/20 06:32:18;;;;;;;3.70;3.20;;;;;;;6.72;78.31;99756.39;105354;1280;24009;-82
2022/04/20 06:35:08;;;;;;;3.50;2.80;;;;;;;6.73;77.93;99752.37;106247;1278;22591;-81
2022/04/20 06:38:04;;;;;;;3.20;2.90;;;;;;;6.70;78.21;99748.02;105265;1280;25367;-85
2022/04/20 06:40:58;;;;;;;3.90;3.10;;;;;;;6.76;78.30;99745.89;106769;1277;25396;-82
2022/04/20 06:43:50;;;;;;;3.00;2.70;;;;;;;6.78;77.90;99743.42;106905;1278;22643;-83
2022/04/20 06:46:35;;;;;;;4.90;3.60;;;;;;;6.78;77.79;99742.37;107255;1277;22562;-82
2022/04/20 06:49:16;;;;;;;4.80;4.10;;;;;;;6.71;77.81;99742.58;106178;1278;22667;-82
2022/04/20 06:58:45;;;;;;;6.20;4.10;;;;;;;6.72;78.45;99735.58;106581;1273;23063;-81
2022/04/20 07:01:26;;;;;;;5.60;3.90;;;;;;;6.78;78.15;99737.30;106159;1273;25310;-81
2022/04/20 07:04:11;;;;;;;5.10;4.00;;;;;;;6.81;78.04;99738.16;106368;1274;25251;-79
2022/04/20 07:06:51;;;;;;;4.20;3.80;;;;;;;6.88;78.13;99734.45;105953;1274;25397;-81
2022/04/20 07:13:17;;;;;;;6.50;2.80;;;;;;;7.02;77.55;99734.91;106141;1277;22678;-79
2022/04/20 07:15:45;;;;;;;4.00;2.90;;;;;;;7.10;77.51;99731.90;105944;1276;25348;-80
2022/04/20 07:18:11;;;;;;;3.50;2.90;;;;;;;7.18;77.33;99734.82;105721;1276;22562;-82
2022/04/20 07:21:04;;;;;;;4.90;3.20;;;;;;;7.31;77.54;99734.23;105815;1277;24067;-80
2022/04/20 07:24:06;;;;;;;3.90;2.70;;;;;;;7.48;77.40;99731.66;105251;1282;22550;-81
2022/04/20 07:26:41;;;;;;;5.10;3.60;;;;;;;7.57;76.97;99728.11;104980;1282;22631;-84
2022/04/20 07:29:22;;;;;;;3.60;2.90;;;;;;;7.64;76.83;99722.27;105157;1282;25453;-82
2022/04/20 07:32:07;;;;;;;4.00;3.30;;;;;;;7.73;76.62;99711.85;105119;1283;25421;-80
2022/04/20 07:34:49;;;;;;;4.30;3.20;;;;;;;7.76;76.08;99709.38;105120;1282;25273;-82
2022/04/20 07:38:13;;;;;;;5.60;3.00;;;;;;;7.81;76.43;99711.43;104866;1286;22559;-80
2022/04/20 07:40:59;;;;;;;4.10;3.70;;;;;;;7.94;76.36;99699.91;105053;1285;24793;-81
2022/04/20 07:43:39;;;;;;;3.60;3.20;;;;;;;8.04;75.90;99700.70;104481;1291;25291;-84
2022/04/20 07:46:24;;;;;;;4.60;3.50;;;;;;;8.03;75.80;99694.58;104383;1292;25461;-83
2022/04/20 07:52:45;;;;;;;3.60;3.30;;;;;;;8.16;75.70;99683.59;103745;1300;25344;-81
2022/04/20 07:55:33;;;;;;;4.60;3.50;;;;;;;8.17;75.19;99684.97;104237;1303;22725;-81
2022/04/20 07:58:21;;;;;;;5.00;3.60;;;;;;;8.20;75.39;99687.58;105082;1291;22626;-81
2022/04/20 08:01:16;;;;;;;6.60;4.20;;;;;;;8.18;74.96;99693.03;106950;1287;22638;-81
2022/04/20 08:04:03;;;;;;;;;;;;;;;8.07;74.58;99691.20;107903;1285;22671;-80
2022/04/20 08:06:58;;;;;;;5.60;3.50;;;;;;;8.00;74.98;99701.98;107387;1287;22631;-80
2022/04/20 08:09:25;;;;;;;3.50;3.00;;;;;;;8.10;75.29;99696.79;107866;1285;22606;-81
2022/04/20 08:11:52;;;;;;;4.20;3.80;;;;;;;8.22;74.86;99698.41;107784;1285;22603;-80
2022/04/20 08:14:19;;;;;;;4.10;3.40;;;;;;;8.36;74.88;99702.14;108298;1281;22551;-81
2022/04/20 08:16:53;;;;;;;5.40;3.90;;;;;;;8.47;74.63;99705.17;108627;1272;25364;-80
2022/04/20 08:19:26;;;;;;;5.10;3.70;;;;;;;8.59;74.51;99705.58;108747;1273;22491;-81
2022/04/20 08:22:14;;;;;;;4.60;3.70;;;;;;;8.71;74.14;99710.17;108969;1273;22765;-80
2022/04/20 08:24:45;;;;;;;5.00;4.00;;;;;;;8.72;73.71;99709.80;109122;1264;23475;-86
2022/04/20 08:27:14;;;;;;;4.40;3.60;;;;;;;8.76;73.89;99707.14;108152;1276;24244;-78
2022/04/20 08:29:42;;;;;;;4.70;4.00;;;;;;;8.84;73.68;99706.68;107955;1276;22667;-79
2022/04/20 08:32:09;;;;;;;4.50;3.30;;;;;;;8.81;72.90;99699.53;107280;1276;22851;-80
2022/04/20 08:34:36;;;;;;;4.30;3.60;;;;;;;8.65;72.59;99689.02;106055;1277;25949;-80
2022/04/20 08:37:22;;;;;;;4.70;3.70;;;;;;;8.56;72.80;99686.31;106321;1276;24263;-78
2022/04/20 08:39:48;;;;;;;4.60;3.30;;;;;;;8.51;72.28;99690.73;106018;1278;24847;-76
2022/04/20 08:42:19;;;;;;;4.20;3.70;;;;;;;8.34;72.45;99693.55;106187;1278;25269;-77
2022/04/20 08:44:51;;;;;;;4.70;3.40;;;;;;;8.20;72.82;99697.05;106452;1277;23817;-80
2022/04/20 08:47:23;;;;;;;3.90;3.10;;;;;;;8.20;73.45;99698.08;105604;1285;22680;-86
2022/04/20 08:49:50;;;;;;;9.00;5.20;;;;;;;8.30;73.78;99695.18;106080;1282;22563;-85
2022/04/20 08:52:39;;;;;;;6.50;4.20;;;;;;;8.41;73.61;99688.21;106823;1281;22579;-79
2022/04/20 08:55:12;;;;;;;4.80;3.80;;;;;;;8.50;73.41;99688.46;105677;1281;23912;-83
2022/04/20 08:57:49;;;;;;;4.70;3.50;;;;;;;8.56;73.37;99689.83;108062;1267;22522;-83
2022/04/20 09:00:22;;;;;;;4.10;3.30;;;;;;;8.60;72.89;99696.10;107137;1274;22850;-84
2022/04/20 09:02:57;;;;;;;4.10;3.60;;;;;;;8.46;72.54;99696.05;106692;1274;22537;-83
2022/04/20 09:05:28;;;;;;;6.00;4.10;;;;;;;8.37;72.88;99699.14;106746;1274;22561;-83
2022/04/20 09:07:56;;;;;;;5.30;3.90;;;;;;;8.35;72.95;99707.41;106814;1274;22743;-79
2022/04/20 09:10:22;;;;;;;5.20;3.70;;;;;;;8.36;73.11;99712.84;106400;1274;22692;-84
2022/04/20 09:13:03;;;;;;;5.70;4.00;;;;;;;8.42;73.21;99715.05;106605;1274;22535;-81
2022/04/20 09:15:31;;;;;;;4.70;3.90;;;;;;;8.47;73.24;99713.58;106402;1275;24325;-80
2022/04/20 09:18:03;;;;;;;5.40;3.70;;;;;;;8.56;73.25;99713.69;106575;1272;22691;-83
2022/04/20 09:20:34;;;;;;;4.50;4.10;;;;;;;8.63;72.97;99728.01;106402;1274;24348;-83
2022/04/20 09:23:09;;;;;;;4.90;3.70;;;;;;;8.62;72.79;99728.54;106445;1272;24380;-81
2022/04/20 09:25:49;;;;;;;5.60;4.30;;;;;;;8.64;72.73;99725.00;106311;1274;24301;-81
2022/04/20 09:28:16;;;;;;;5.30;3.60;;;;;;;8.57;72.38;99715.60;106272;1275;22845;-82
2022/04/20 09:30:43;;;;;;;4.60;3.90;;;;;;;8.54;72.48;99718.61;106209;1274;22634;-83
2022/04/20 09:33:10;;;;;;;5.00;4.00;;;;;;;8.57;72.75;99717.20;106340;1277;23381;-82
2022/04/20 09:35:44;;;;;;;5.00;4.40;;;;;;;8.64;72.85;99719.21;106426;1274;24399;-84
2022/04/20 09:38:12;;;;;;;5.80;3.90;;;;;;;8.71;72.78;99723.17;106337;1273;22555;-83
2022/04/20 09:41:10;;;;;;;6.00;4.30;;;;;;;8.75;72.75;99722.41;106178;1274;22541;-84
2022/04/20 09:43:38;;;;;;;4.80;3.80;;;;;;;8.76;72.61;99721.37;106222;1273;25214;-81
2022/04/20 09:48:50;;;;;;;4.10;3.60;;;;;;;8.72;72.33;99724.91;106105;1274;22623;-83
2022/04/20 09:49:09;;;;;;;5.10;4.70;;;;;;;8.57;72.10;99723.33;106236;1274;25273;-82
2022/04/20 09:51:41;;;;;;;4.90;4.10;;;;;;;8.48;71.96;99730.42;106331;1274;24102;-83
2022/04/20 09:54:26;;;;;;;6.10;4.50;;;;;;;8.36;72.12;99736.17;106973;1274;22549;-83
2022/04/20 09:57:12;;;;;;;5.20;4.30;;;;;;;8.38;72.58;99743.69;107197;1275;25345;-83
2022/04/20 09:59:57;;;;;;;;;;;;;;;8.45;72.75;99743.96;106851;1273;22741;-81
2022/04/20 10:02:51;;;;;;;7.60;4.80;;;;;;;8.57;72.91;99745.27;108393;1274;22481;-87
2022/04/20 10:05:22;;;;;;;5.80;5.20;;;;;;;8.70;73.13;99746.88;107407;1274;26963;-85
2022/04/20 10:07:58;;;;;;;8.10;5.40;;;;;;;8.83;72.91;99749.90;106747;1274;25912;-83
2022/04/20 10:10:28;;;;;;;5.30;4.60;;;;;;;8.97;73.02;99754.45;106360;1273;23070;-84
2022/04/20 10:12:56;;;;;;;7.00;4.50;;;;;;;9.19;72.97;99753.11;106216;1274;24290;-83
2022/04/20 10:18:30;;;;;;;7.00;6.20;;;;;;;9.51;72.22;99755.31;105711;1280;25552;-85
2022/04/20 10:20:59;;;;;;;7.70;5.60;;;;;;;9.56;71.82;99754.87;106049;1273;22547;-80
2022/04/20 10:23:29;;;;;;;6.20;5.60;;;;;;;9.53;71.56;99754.05;105931;1275;25260;-81
2022/04/20 10:26:00;;;;;;;7.30;5.50;;;;;;;9.59;71.84;99751.84;106094;1273;22540;-81
2022/04/20 10:28:52;;;;;;;7.70;5.20;;;;;;;9.65;71.58;99750.17;106252;1273;22546;-80
2022/04/20 10:31:46;;;;;;;6.30;4.90;;;;;;;9.57;70.73;99754.69;106207;1274;22681;-83
2022/04/20 10:34:15;;;;;;;5.70;5.00;;;;;;;9.55;70.98;99769.31;106073;1274;22742;-81
2022/04/20 10:37:01;;;;;;;7.70;5.50;;;;;;;9.58;70.72;99770.14;106142;1274;22535;-82
2022/04/20 10:39:36;;;;;;;6.80;4.30;;;;;;;9.62;70.39;99770.26;106174;1274;22589;-80
2022/04/20 10:42:19;;;;;;;5.80;4.80;;;;;;;9.59;69.55;99769.59;106028;1274;22563;-79
2022/04/20 10:44:55;;;;;;;7.80;6.30;;;;;;;9.61;69.65;99759.90;106059;1273;25376;-78
2022/04/20 10:47:26;;;;;;;6.50;5.50;;;;;;;9.65;69.69;99761.42;106022;1274;22718;-80
2022/04/20 10:50:09;;;;;;;7.20;5.00;;;;;;;9.68;69.42;99762.95;106090;1274;24085;-81
2022/04/20 10:52:37;;;;;;;6.10;5.50;;;;;;;9.71;69.19;99761.66;105936;1273;22557;-77
2022/04/20 10:55:12;;;;;;;5.60;4.70;;;;;;;9.71;68.80;99754.48;106035;1274;25255;-80
2022/04/20 10:57:41;;;;;;;8.80;5.20;;;;;;;9.66;68.53;99763.86;106023;1274;25257;-82
2022/04/20 11:00:17;;;;;;;6.00;5.40;;;;;;;9.63;68.53;99764.80;106128;1274;22684;-79
2022/04/20 11:02:52;;;;;;;6.40;4.90;;;;;;;9.63;68.60;99767.61;106072;1274;22556;-79
2022/04/20 11:05:23;;;;;;;7.30;4.70;;;;;;;9.69;68.64;99769.79;106031;1274;24271;-80
2022/04/20 11:08:05;;;;;;;6.10;5.20;;;;;;;9.73;68.52;99766.21;106011;1273;24208;-78
2022/04/20 11:10:34;;;;;;;6.80;5.30;;;;;;;9.77;67.99;99761.23;106183;1274;25251;-78
2022/04/20 11:19:23;;;;;;;5.20;4.40;;;;;;;9.89;67.77;99759.80;106026;1274;22539;-80
2022/04/20 11:22:10;;;;;;;6.30;4.40;;;;;;;9.94;67.11;99763.42;106059;1274;25251;-78
2022/04/20 11:24:42;;;;;;;6.50;4.60;;;;;;;10.00;66.96;99765.96;106145;1274;25532;-83
2022/04/20 11:27:08;;;;;;;6.00;5.10;;;;;;;10.07;66.79;99767.08;106126;1274;24225;-84
2022/04/20 11:29:35;;;;;;;5.90;5.30;;;;;;;10.12;66.58;99770.87;105945;1273;22697;-85
2022/04/20 11:32:10;;;;;;;6.70;5.30;;;;;;;10.14;66.73;99770.84;106023;1274;22558;-79
2022/04/20 11:35:07;;;;;;;5.60;5.00;;;;;;;10.13;66.85;99764.33;106206;1274;24225;-87
2022/04/20 11:37:34;;;;;;;6.50;5.00;;;;;;;10.09;66.68;99763.36;106143;1273;22656;-79
2022/04/20 11:40:11;;;;;;;5.40;4.90;;;;;;;10.02;66.94;99762.95;106149;1273;23961;-78
2022/04/20 11:42:37;;;;;;;6.50;5.10;;;;;;;10.06;67.14;99768.51;106361;1274;22535;-91
2022/04/20 11:45:06;;;;;;;6.90;5.30;;;;;;;10.11;67.14;99765.60;109616;1273;22567;-94
2022/04/20 11:50:30;;;;;;;5.60;5.10;;;;;;;10.22;66.88;99758.90;109281;1264;22528;-93
2022/04/20 11:52:58;;;;;;;5.30;4.80;;;;;;;10.29;66.58;99761.60;109138;1276;23728;-95
2022/04/20 11:55:59;;;;;;;5.30;4.80;;;;;;;10.20;65.80;99765.27;109452;1265;22415;31
2022/04/20 11:58:28;;;;;;;6.80;4.90;;;;;;;10.14;65.73;99765.38;108594;1263;22572;-77
2022/04/20 12:01:02;;;;;;;5.80;4.30;;;;;;;10.20;66.06;99762.10;106080;1274;25255;-89
2022/04/20 12:03:36;;;;;;;6.30;5.30;;;;;;;10.23;66.07;99759.07;106095;1276;22586;-83
2022/04/20 12:06:06;;;;;;;10.10;6.50;;;;;;;10.19;65.84;99760.02;106112;1275;22583;-81
2022/04/20 12:08:33;;;;;;;7.10;5.50;;;;;;;10.10;65.88;99762.27;106293;1273;25439;-83
2022/04/20 12:11:08;;;;;;;6.00;5.40;;;;;;;10.01;66.02;99764.36;105772;1273;22565;-84
2022/04/20 12:13:35;;;;;;;7.40;5.80;;;;;;;9.96;66.16;99765.16;106128;1273;25406;-82
2022/04/20 12:16:21;;;;;;;6.10;5.40;;;;;;;9.89;66.25;99767.73;105905;1277;22711;-85
2022/04/20 12:18:48;;;;;;;6.50;5.70;;;;;;;9.83;66.44;99773.10;106190;1274;24172;-78
2022/04/20 12:21:41;;;;;;;8.00;5.10;;;;;;;9.80;66.82;99778.23;105647;1276;22575;-77
2022/04/20 12:24:10;;;;;;;6.60;5.20;;;;;;;9.77;66.92;99778.10;105713;1276;22688;-77
2022/04/20 12:26:41;;;;;;;6.70;6.10;;;;;;;9.69;66.66;99781.22;106010;1273;22559;-76
2022/04/20 12:29:08;;;;;;;6.80;5.80;;;;;;;9.59;66.86;99777.50;105350;1282;22552;-78
2022/04/20 12:31:38;;;;;;;7.40;5.80;;;;;;;9.63;67.18;99779.36;105451;1282;25501;-75
2022/04/20 12:34:07;;;;;;;7.60;6.10;;;;;;;9.70;67.30;99777.86;105243;1282;23387;-76
2022/04/20 12:37:00;;;;;;;6.50;5.20;;;;;;;9.75;67.16;99779.38;105517;1282;22580;-82